sensor_id;sensor_type;location;lat;lon;timestamp;noise_LAeq;noise_LA_min;noise_LA_max;noise_LA01;noise_LA95
69610;Laerm;56816;52.192;4.474;2022-10-22T00:00:04;46.79;42.70;50.21;;
69610;Laerm;56816;52.192;4.474;2022-10-22T00:00:15;47.47;40.72;56.22;;
69610;Laerm;56816;52.192;4.474;2022-10-22T00:00:26;49.68;39.45;58.62;;
69610;Laerm;56816;52.192;4.474;2022-10-22T00:00:36;39.04;36.77;41.42;;
69610;Laerm;56816;52.192;4.474;2022-10-22T00:00:46;39.94;36.71;45.52;;
69610;Laerm;56816;52.192;4.474;2022-10-22T00:00:57;38.53;35.62;46.48;;
69610;Laerm;56816;52.192;4.474;2022-10-22T00:01:08;41.02;38.10;47.04;;
69610;Laerm;56816;52.192;4.474;2022-10-22T00:01:18;41.63;37.73;46.53;;
69610;Laerm;56816;52.192;4.474;2022-10-22T00:01:29;39.37;36.10;42.51;;
69610;Laerm;56816;52.192;4.474;2022-10-22T00:01:39;41.60;37.92;47.72;;
69610;Laerm;56816;52.192;4.474;2022-10-22T00:01:49;50.95;43.87;62.80;;
69610;Laerm;56816;52.192;4.474;2022-10-22T00:02:00;42.46;38.19;50.96;;
69610;Laerm;56816;52.192;4.474;2022-10-22T00:02:10;43.49;38.96;49.28;;
69610;Laerm;56816;52.192;4.474;2022-10-22T00:02:22;45.67;38.36;54.52;;
69610;Laerm;56816;52.192;4.474;2022-10-22T00:02:32;43.81;40.18;51.22;;
69610;Laerm;56816;52.192;4.474;2022-10-22T00:02:43;46.17;41.58;55.87;;
69610;Laerm;56816;52.192;4.474;2022-10-22T00:02:53;41.40;38.28;46.34;;
69610;Laerm;56816;52.192;4.474;2022-10-22T00:03:04;41.47;38.64;47.01;;
69610;Laerm;56816;52.192;4.474;2022-10-22T00:03:14;41.51;38.45;44.35;;
69610;Laerm;56816;52.192;4.474;2022-10-22T00:03:24;43.42;39.91;45.54;;
69610;Laerm;56816;52.192;4.474;2022-10-22T00:03:34;51.23;41.18;58.70;;
69610;Laerm;56816;52.192;4.474;2022-10-22T00:03:45;48.98;41.05;58.24;;
69610;Laerm;56816;52.192;4.474;2022-10-22T00:03:55;42.68;39.27;45.32;;
69610;Laerm;56816;52.192;4.474;2022-10-22T00:04:05;41.11;39.22;43.81;;
69610;Laerm;56816;52.192;4.474;2022-10-22T00:04:16;42.46;39.63;45.19;;
69610;Laerm;56816;52.192;4.474;2022-10-22T00:04:26;42.05;37.91;44.87;;
69610;Laerm;56816;52.192;4.474;2022-10-22T00:04:36;38.96;36.42;41.28;;
69610;Laerm;56816;52.192;4.474;2022-10-22T00:04:47;40.82;36.34;51.21;;
69610;Laerm;56816;52.192;4.474;2022-10-22T00:04:58;50.32;37.01;62.72;;
69610;Laerm;56816;52.192;4.474;2022-10-22T00:05:09;38.42;36.78;42.29;;
69610;Laerm;56816;52.192;4.474;2022-10-22T00:05:19;43.18;38.03;48.28;;
69610;Laerm;56816;52.192;4.474;2022-10-22T00:05:29;39.37;36.96;42.44;;
69610;Laerm;56816;52.192;4.474;2022-10-22T00:05:39;41.45;36.11;56.11;;
69610;Laerm;56816;52.192;4.474;2022-10-22T00:05:50;38.12;36.36;40.03;;
69610;Laerm;56816;52.192;4.474;2022-10-22T00:06:00;37.42;35.38;39.75;;
69610;Laerm;56816;52.192;4.474;2022-10-22T00:06:10;38.72;35.59;42.34;;
69610;Laerm;56816;52.192;4.474;2022-10-22T00:06:20;39.45;35.92;43.34;;
69610;Laerm;56816;52.192;4.474;2022-10-22T00:06:31;40.79;37.90;46.83;;
69610;Laerm;56816;52.192;4.474;2022-10-22T00:06:41;39.24;36.51;44.55;;
69610;Laerm;56816;52.192;4.474;2022-10-22T00:06:54;39.35;35.48;42.66;;
69610;Laerm;56816;52.192;4.474;2022-10-22T00:07:04;38.91;36.91;41.09;;
69610;Laerm;56816;52.192;4.474;2022-10-22T00:07:15;39.02;36.55;41.54;;
69610;Laerm;56816;52.192;4.474;2022-10-22T00:07:25;39.25;36.22;41.60;;
69610;Laerm;56816;52.192;4.474;2022-10-22T00:07:36;41.14;38.22;45.36;;
69610;Laerm;56816;52.192;4.474;2022-10-22T00:07:46;39.74;37.37;42.30;;
69610;Laerm;56816;52.192;4.474;2022-10-22T00:07:56;41.55;38.78;44.22;;
69610;Laerm;56816;52.192;4.474;2022-10-22T00:08:06;53.44;42.31;68.07;;
69610;Laerm;56816;52.192;4.474;2022-10-22T00:08:17;44.25;37.78;55.07;;
69610;Laerm;56816;52.192;4.474;2022-10-22T00:08:27;49.81;38.80;60.39;;
69610;Laerm;56816;52.192;4.474;2022-10-22T00:08:38;42.09;38.83;46.44;;
69610;Laerm;56816;52.192;4.474;2022-10-22T00:08:48;41.62;39.29;45.38;;
69610;Laerm;56816;52.192;4.474;2022-10-22T00:08:58;45.55;39.97;53.36;;
69610;Laerm;56816;52.192;4.474;2022-10-22T00:09:08;45.15;37.62;50.03;;
69610;Laerm;56816;52.192;4.474;2022-10-22T00:09:19;40.17;37.59;43.45;;
69610;Laerm;56816;52.192;4.474;2022-10-22T00:09:29;51.35;43.03;58.02;;
69610;Laerm;56816;52.192;4.474;2022-10-22T00:09:39;51.97;43.02;58.26;;
69610;Laerm;56816;52.192;4.474;2022-10-22T00:09:49;46.70;41.31;55.03;;
69610;Laerm;56816;52.192;4.474;2022-10-22T00:10:00;43.04;40.01;47.14;;
69610;Laerm;56816;52.192;4.474;2022-10-22T00:10:10;42.20;39.43;47.45;;
69610;Laerm;56816;52.192;4.474;2022-10-22T00:10:21;45.30;40.87;50.54;;
69610;Laerm;56816;52.192;4.474;2022-10-22T00:10:31;43.12;39.82;46.90;;
69610;Laerm;56816;52.192;4.474;2022-10-22T00:10:41;43.84;40.22;46.42;;
69610;Laerm;56816;52.192;4.474;2022-10-22T00:10:51;44.91;40.16;50.50;;
69610;Laerm;56816;52.192;4.474;2022-10-22T00:11:12;42.92;39.34;47.28;;
69610;Laerm;56816;52.192;4.474;2022-10-22T00:11:22;43.78;40.82;50.36;;
69610;Laerm;56816;52.192;4.474;2022-10-22T00:11:33;43.86;41.99;46.63;;
69610;Laerm;56816;52.192;4.474;2022-10-22T00:11:43;44.13;41.12;47.52;;
69610;Laerm;56816;52.192;4.474;2022-10-22T00:11:53;45.29;42.57;47.42;;
69610;Laerm;56816;52.192;4.474;2022-10-22T00:12:03;43.62;39.32;46.28;;
69610;Laerm;56816;52.192;4.474;2022-10-22T00:12:14;41.76;39.23;44.09;;
69610;Laerm;56816;52.192;4.474;2022-10-22T00:12:24;45.85;40.96;50.60;;
69610;Laerm;56816;52.192;4.474;2022-10-22T00:12:35;45.88;41.26;55.11;;
69610;Laerm;56816;52.192;4.474;2022-10-22T00:12:45;51.06;41.95;59.88;;
69610;Laerm;56816;52.192;4.474;2022-10-22T00:12:55;41.65;38.33;43.69;;
69610;Laerm;56816;52.192;4.474;2022-10-22T00:13:06;40.79;38.02;45.74;;
69610;Laerm;56816;52.192;4.474;2022-10-22T00:13:16;40.59;37.98;43.14;;
69610;Laerm;56816;52.192;4.474;2022-10-22T00:13:26;38.34;36.09;40.73;;
69610;Laerm;56816;52.192;4.474;2022-10-22T00:13:37;37.99;36.33;40.38;;
69610;Laerm;56816;52.192;4.474;2022-10-22T00:13:47;37.79;35.43;40.21;;
69610;Laerm;56816;52.192;4.474;2022-10-22T00:13:58;39.03;36.67;45.23;;
69610;Laerm;56816;52.192;4.474;2022-10-22T00:14:08;39.42;36.54;43.13;;
69610;Laerm;56816;52.192;4.474;2022-10-22T00:14:18;41.44;36.77;52.93;;
69610;Laerm;56816;52.192;4.474;2022-10-22T00:14:29;40.05;36.88;42.74;;
69610;Laerm;56816;52.192;4.474;2022-10-22T00:14:39;43.47;37.99;46.21;;
69610;Laerm;56816;52.192;4.474;2022-10-22T00:14:50;46.88;41.60;51.91;;
69610;Laerm;56816;52.192;4.474;2022-10-22T00:15:00;46.95;44.05;50.91;;
69610;Laerm;56816;52.192;4.474;2022-10-22T00:15:10;41.47;37.02;54.43;;
69610;Laerm;56816;52.192;4.474;2022-10-22T00:15:21;38.71;36.49;42.78;;
69610;Laerm;56816;52.192;4.474;2022-10-22T00:15:31;37.97;36.26;40.27;;
69610;Laerm;56816;52.192;4.474;2022-10-22T00:15:41;38.24;36.51;40.08;;
69610;Laerm;56816;52.192;4.474;2022-10-22T00:15:52;38.88;36.70;41.46;;
69610;Laerm;56816;52.192;4.474;2022-10-22T00:16:02;39.12;37.18;42.19;;
69610;Laerm;56816;52.192;4.474;2022-10-22T00:16:12;39.48;36.00;45.97;;
69610;Laerm;56816;52.192;4.474;2022-10-22T00:16:23;40.40;37.04;46.98;;
69610;Laerm;56816;52.192;4.474;2022-10-22T00:16:33;42.54;38.52;47.29;;
69610;Laerm;56816;52.192;4.474;2022-10-22T00:16:43;39.18;36.31;45.21;;
69610;Laerm;56816;52.192;4.474;2022-10-22T00:16:53;44.60;38.03;56.34;;
69610;Laerm;56816;52.192;4.474;2022-10-22T00:17:05;40.24;36.91;49.90;;
69610;Laerm;56816;52.192;4.474;2022-10-22T00:17:15;40.75;37.58;44.92;;
69610;Laerm;56816;52.192;4.474;2022-10-22T00:17:26;49.98;38.53;63.78;;
69610;Laerm;56816;52.192;4.474;2022-10-22T00:17:36;41.41;38.65;49.87;;
69610;Laerm;56816;52.192;4.474;2022-10-22T00:17:46;42.37;39.09;46.59;;
69610;Laerm;56816;52.192;4.474;2022-10-22T00:17:58;44.20;40.66;49.97;;
69610;Laerm;56816;52.192;4.474;2022-10-22T00:18:08;42.10;39.56;45.69;;
69610;Laerm;56816;52.192;4.474;2022-10-22T00:18:19;43.02;40.51;49.46;;
69610;Laerm;56816;52.192;4.474;2022-10-22T00:18:29;41.76;38.12;50.32;;
69610;Laerm;56816;52.192;4.474;2022-10-22T00:18:39;39.72;37.67;43.33;;
69610;Laerm;56816;52.192;4.474;2022-10-22T00:18:50;40.98;37.57;46.04;;
69610;Laerm;56816;52.192;4.474;2022-10-22T00:19:00;41.16;37.64;45.56;;
69610;Laerm;56816;52.192;4.474;2022-10-22T00:19:10;40.19;36.91;45.55;;
69610;Laerm;56816;52.192;4.474;2022-10-22T00:19:22;40.78;38.35;43.28;;
69610;Laerm;56816;52.192;4.474;2022-10-22T00:19:32;47.23;38.73;60.20;;
69610;Laerm;56816;52.192;4.474;2022-10-22T00:19:42;38.11;36.47;42.70;;
69610;Laerm;56816;52.192;4.474;2022-10-22T00:19:53;40.71;37.50;45.59;;
69610;Laerm;56816;52.192;4.474;2022-10-22T00:20:03;42.33;36.73;47.61;;
69610;Laerm;56816;52.192;4.474;2022-10-22T00:20:14;37.44;35.45;39.29;;
69610;Laerm;56816;52.192;4.474;2022-10-22T00:20:24;37.09;35.45;39.11;;
69610;Laerm;56816;52.192;4.474;2022-10-22T00:20:34;36.73;35.06;38.45;;
69610;Laerm;56816;52.192;4.474;2022-10-22T00:20:44;38.92;35.10;47.21;;
69610;Laerm;56816;52.192;4.474;2022-10-22T00:20:55;38.07;36.13;41.56;;
69610;Laerm;56816;52.192;4.474;2022-10-22T00:21:05;40.17;37.32;44.71;;
69610;Laerm;56816;52.192;4.474;2022-10-22T00:21:16;41.91;38.44;45.05;;
69610;Laerm;56816;52.192;4.474;2022-10-22T00:21:26;41.01;37.63;44.34;;
69610;Laerm;56816;52.192;4.474;2022-10-22T00:21:38;43.10;37.82;57.67;;
69610;Laerm;56816;52.192;4.474;2022-10-22T00:21:48;40.87;37.43;54.51;;
69610;Laerm;56816;52.192;4.474;2022-10-22T00:21:58;39.41;37.57;42.01;;
69610;Laerm;56816;52.192;4.474;2022-10-22T00:22:09;40.00;37.88;42.52;;
69610;Laerm;56816;52.192;4.474;2022-10-22T00:22:20;40.35;38.12;42.89;;
69610;Laerm;56816;52.192;4.474;2022-10-22T00:22:30;40.73;37.76;45.28;;
69610;Laerm;56816;52.192;4.474;2022-10-22T00:22:40;40.43;37.72;43.78;;
69610;Laerm;56816;52.192;4.474;2022-10-22T00:22:50;42.25;38.99;45.14;;
69610;Laerm;56816;52.192;4.474;2022-10-22T00:23:01;39.98;38.23;43.02;;
69610;Laerm;56816;52.192;4.474;2022-10-22T00:23:11;40.13;37.85;44.62;;
69610;Laerm;56816;52.192;4.474;2022-10-22T00:23:21;40.87;38.59;43.37;;
69610;Laerm;56816;52.192;4.474;2022-10-22T00:23:32;39.57;38.09;41.44;;
69610;Laerm;56816;52.192;4.474;2022-10-22T00:23:42;38.94;36.15;46.71;;
69610;Laerm;56816;52.192;4.474;2022-10-22T00:23:52;42.00;36.51;51.80;;
69610;Laerm;56816;52.192;4.474;2022-10-22T00:24:02;42.41;37.21;53.93;;
69610;Laerm;56816;52.192;4.474;2022-10-22T00:24:13;40.96;36.23;45.09;;
69610;Laerm;56816;52.192;4.474;2022-10-22T00:24:24;38.15;36.06;40.25;;
69610;Laerm;56816;52.192;4.474;2022-10-22T00:24:35;49.31;39.29;55.79;;
69610;Laerm;56816;52.192;4.474;2022-10-22T00:24:45;49.27;40.72;56.83;;
69610;Laerm;56816;52.192;4.474;2022-10-22T00:24:55;40.72;37.95;43.98;;
69610;Laerm;56816;52.192;4.474;2022-10-22T00:25:06;42.77;39.44;48.04;;
69610;Laerm;56816;52.192;4.474;2022-10-22T00:25:16;39.16;36.79;44.67;;
69610;Laerm;56816;52.192;4.474;2022-10-22T00:25:27;45.63;38.52;62.39;;
69610;Laerm;56816;52.192;4.474;2022-10-22T00:25:37;48.55;39.28;63.45;;
69610;Laerm;56816;52.192;4.474;2022-10-22T00:25:47;39.66;37.53;41.68;;
69610;Laerm;56816;52.192;4.474;2022-10-22T00:25:57;43.52;39.12;47.85;;
69610;Laerm;56816;52.192;4.474;2022-10-22T00:26:08;48.58;36.04;60.78;;
69610;Laerm;56816;52.192;4.474;2022-10-22T00:26:18;40.50;36.81;46.30;;
69610;Laerm;56816;52.192;4.474;2022-10-22T00:26:29;40.80;38.05;45.32;;
69610;Laerm;56816;52.192;4.474;2022-10-22T00:26:39;40.95;38.81;44.35;;
69610;Laerm;56816;52.192;4.474;2022-10-22T00:26:49;44.19;39.56;48.78;;
69610;Laerm;56816;52.192;4.474;2022-10-22T00:27:00;42.38;38.18;45.65;;
69610;Laerm;56816;52.192;4.474;2022-10-22T00:27:10;52.36;40.87;62.21;;
69610;Laerm;56816;52.192;4.474;2022-10-22T00:27:21;41.58;37.78;45.63;;
69610;Laerm;56816;52.192;4.474;2022-10-22T00:27:31;40.97;38.10;44.66;;
69610;Laerm;56816;52.192;4.474;2022-10-22T00:27:41;40.12;37.80;42.31;;
69610;Laerm;56816;52.192;4.474;2022-10-22T00:27:52;41.70;39.38;44.38;;
69610;Laerm;56816;52.192;4.474;2022-10-22T00:28:02;41.82;39.00;44.90;;
69610;Laerm;56816;52.192;4.474;2022-10-22T00:28:12;40.90;37.74;45.11;;
69610;Laerm;56816;52.192;4.474;2022-10-22T00:28:23;40.58;38.31;44.28;;
69610;Laerm;56816;52.192;4.474;2022-10-22T00:28:34;43.86;39.05;56.41;;
69610;Laerm;56816;52.192;4.474;2022-10-22T00:28:44;42.12;37.73;50.34;;
69610;Laerm;56816;52.192;4.474;2022-10-22T00:28:54;41.71;39.44;47.95;;
69610;Laerm;56816;52.192;4.474;2022-10-22T00:29:05;40.99;38.95;43.09;;
69610;Laerm;56816;52.192;4.474;2022-10-22T00:29:15;40.12;37.51;42.10;;
69610;Laerm;56816;52.192;4.474;2022-10-22T00:29:28;41.07;37.42;46.26;;
69610;Laerm;56816;52.192;4.474;2022-10-22T00:29:39;42.21;39.11;44.45;;
69610;Laerm;56816;52.192;4.474;2022-10-22T00:29:49;41.18;38.94;43.90;;
69610;Laerm;56816;52.192;4.474;2022-10-22T00:29:59;43.25;41.30;45.12;;
69610;Laerm;56816;52.192;4.474;2022-10-22T00:30:10;42.87;40.54;47.95;;
69610;Laerm;56816;52.192;4.474;2022-10-22T00:30:20;45.92;41.66;49.53;;
69610;Laerm;56816;52.192;4.474;2022-10-22T00:30:30;45.92;39.48;52.64;;
69610;Laerm;56816;52.192;4.474;2022-10-22T00:30:41;42.09;39.25;45.27;;
69610;Laerm;56816;52.192;4.474;2022-10-22T00:30:58;41.74;38.63;46.55;;
69610;Laerm;56816;52.192;4.474;2022-10-22T00:31:08;40.92;37.61;47.22;;
69610;Laerm;56816;52.192;4.474;2022-10-22T00:31:18;40.87;38.50;43.43;;
69610;Laerm;56816;52.192;4.474;2022-10-22T00:31:29;40.48;38.36;44.70;;
69610;Laerm;56816;52.192;4.474;2022-10-22T00:31:39;40.71;37.83;43.51;;
69610;Laerm;56816;52.192;4.474;2022-10-22T00:31:50;39.80;37.26;47.20;;
69610;Laerm;56816;52.192;4.474;2022-10-22T00:32:00;38.54;35.62;46.10;;
69610;Laerm;56816;52.192;4.474;2022-10-22T00:32:11;43.56;37.57;54.83;;
69610;Laerm;56816;52.192;4.474;2022-10-22T00:32:21;46.17;39.42;56.47;;
69610;Laerm;56816;52.192;4.474;2022-10-22T00:32:31;43.77;39.98;51.96;;
69610;Laerm;56816;52.192;4.474;2022-10-22T00:32:41;41.73;38.74;45.05;;
69610;Laerm;56816;52.192;4.474;2022-10-22T00:32:52;40.84;38.43;43.59;;
69610;Laerm;56816;52.192;4.474;2022-10-22T00:33:02;40.84;38.49;49.84;;
69610;Laerm;56816;52.192;4.474;2022-10-22T00:33:12;41.21;38.92;45.79;;
69610;Laerm;56816;52.192;4.474;2022-10-22T00:33:23;47.04;38.88;59.70;;
69610;Laerm;56816;52.192;4.474;2022-10-22T00:33:33;44.90;38.64;57.92;;
69610;Laerm;56816;52.192;4.474;2022-10-22T00:33:44;41.14;36.71;50.54;;
69610;Laerm;56816;52.192;4.474;2022-10-22T00:33:55;42.20;38.32;47.79;;
69610;Laerm;56816;52.192;4.474;2022-10-22T00:34:05;45.87;39.72;60.19;;
69610;Laerm;56816;52.192;4.474;2022-10-22T00:34:16;50.65;39.53;64.63;;
69610;Laerm;56816;52.192;4.474;2022-10-22T00:34:26;46.65;40.26;55.89;;
69610;Laerm;56816;52.192;4.474;2022-10-22T00:34:37;43.55;40.48;46.95;;
69610;Laerm;56816;52.192;4.474;2022-10-22T00:34:47;44.77;42.01;49.08;;
69610;Laerm;56816;52.192;4.474;2022-10-22T00:34:57;44.50;41.61;48.30;;
69610;Laerm;56816;52.192;4.474;2022-10-22T00:35:07;46.11;40.41;56.40;;
69610;Laerm;56816;52.192;4.474;2022-10-22T00:35:18;40.54;38.21;44.59;;
69610;Laerm;56816;52.192;4.474;2022-10-22T00:35:28;42.05;37.89;53.34;;
69610;Laerm;56816;52.192;4.474;2022-10-22T00:35:38;43.68;37.28;54.63;;
69610;Laerm;56816;52.192;4.474;2022-10-22T00:35:49;38.98;37.05;42.03;;
69610;Laerm;56816;52.192;4.474;2022-10-22T00:35:59;39.35;37.20;45.81;;
69610;Laerm;56816;52.192;4.474;2022-10-22T00:36:09;39.72;37.61;42.16;;
69610;Laerm;56816;52.192;4.474;2022-10-22T00:36:19;42.29;38.09;45.99;;
69610;Laerm;56816;52.192;4.474;2022-10-22T00:36:29;42.94;40.37;45.78;;
69610;Laerm;56816;52.192;4.474;2022-10-22T00:36:40;43.58;39.40;52.48;;
69610;Laerm;56816;52.192;4.474;2022-10-22T00:36:50;45.47;38.99;56.98;;
69610;Laerm;56816;52.192;4.474;2022-10-22T00:37:01;50.80;40.51;64.64;;
69610;Laerm;56816;52.192;4.474;2022-10-22T00:37:11;41.45;38.77;46.16;;
69610;Laerm;56816;52.192;4.474;2022-10-22T00:37:21;43.60;41.13;46.54;;
69610;Laerm;56816;52.192;4.474;2022-10-22T00:37:32;43.18;40.28;45.45;;
69610;Laerm;56816;52.192;4.474;2022-10-22T00:37:42;44.60;40.08;49.31;;
69610;Laerm;56816;52.192;4.474;2022-10-22T00:37:52;47.94;44.90;52.60;;
69610;Laerm;56816;52.192;4.474;2022-10-22T00:38:02;49.16;40.66;59.94;;
69610;Laerm;56816;52.192;4.474;2022-10-22T00:38:13;41.23;38.90;47.08;;
69610;Laerm;56816;52.192;4.474;2022-10-22T00:38:23;41.57;38.34;44.24;;
69610;Laerm;56816;52.192;4.474;2022-10-22T00:38:33;44.67;41.22;48.28;;
69610;Laerm;56816;52.192;4.474;2022-10-22T00:38:44;43.16;39.79;56.01;;
69610;Laerm;56816;52.192;4.474;2022-10-22T00:38:54;41.22;38.76;43.73;;
69610;Laerm;56816;52.192;4.474;2022-10-22T00:39:04;39.76;35.67;46.42;;
69610;Laerm;56816;52.192;4.474;2022-10-22T00:39:15;39.29;36.93;44.81;;
69610;Laerm;56816;52.192;4.474;2022-10-22T00:39:26;40.29;36.90;43.49;;
69610;Laerm;56816;52.192;4.474;2022-10-22T00:39:36;41.27;37.56;51.99;;
69610;Laerm;56816;52.192;4.474;2022-10-22T00:39:46;39.49;37.56;41.30;;
69610;Laerm;56816;52.192;4.474;2022-10-22T00:39:57;40.19;38.00;44.06;;
69610;Laerm;56816;52.192;4.474;2022-10-22T00:40:07;38.98;36.81;41.59;;
69610;Laerm;56816;52.192;4.474;2022-10-22T00:40:17;40.41;37.31;46.65;;
69610;Laerm;56816;52.192;4.474;2022-10-22T00:40:28;40.86;37.06;47.25;;
69610;Laerm;56816;52.192;4.474;2022-10-22T00:40:38;42.34;37.31;52.93;;
69610;Laerm;56816;52.192;4.474;2022-10-22T00:40:48;44.56;36.99;57.29;;
69610;Laerm;56816;52.192;4.474;2022-10-22T00:40:58;39.59;37.01;45.10;;
69610;Laerm;56816;52.192;4.474;2022-10-22T00:41:09;39.25;36.39;49.80;;
69610;Laerm;56816;52.192;4.474;2022-10-22T00:41:19;37.97;35.94;46.58;;
69610;Laerm;56816;52.192;4.474;2022-10-22T00:41:29;37.84;36.03;41.23;;
69610;Laerm;56816;52.192;4.474;2022-10-22T00:41:39;39.10;37.33;40.86;;
69610;Laerm;56816;52.192;4.474;2022-10-22T00:41:50;38.64;36.20;41.18;;
69610;Laerm;56816;52.192;4.474;2022-10-22T00:42:01;40.29;37.46;46.99;;
69610;Laerm;56816;52.192;4.474;2022-10-22T00:42:21;43.40;39.18;48.07;;
69610;Laerm;56816;52.192;4.474;2022-10-22T00:42:32;42.88;39.23;49.03;;
69610;Laerm;56816;52.192;4.474;2022-10-22T00:42:42;41.31;38.86;44.28;;
69610;Laerm;56816;52.192;4.474;2022-10-22T00:42:53;40.97;38.52;42.90;;
69610;Laerm;56816;52.192;4.474;2022-10-22T00:43:03;39.88;37.05;42.84;;
69610;Laerm;56816;52.192;4.474;2022-10-22T00:43:14;39.80;37.32;42.11;;
69610;Laerm;56816;52.192;4.474;2022-10-22T00:43:25;38.69;36.22;42.33;;
69610;Laerm;56816;52.192;4.474;2022-10-22T00:45:23;37.97;34.82;47.86;;
69610;Laerm;56816;52.192;4.474;2022-10-22T00:45:34;40.74;38.13;44.42;;
69610;Laerm;56816;52.192;4.474;2022-10-22T00:45:44;42.00;39.46;44.71;;
69610;Laerm;56816;52.192;4.474;2022-10-22T00:45:55;39.82;36.92;44.07;;
69610;Laerm;56816;52.192;4.474;2022-10-22T00:46:05;37.94;35.56;40.40;;
69610;Laerm;56816;52.192;4.474;2022-10-22T00:46:15;38.14;36.62;39.75;;
69610;Laerm;56816;52.192;4.474;2022-10-22T00:46:26;39.76;37.23;46.11;;
69610;Laerm;56816;52.192;4.474;2022-10-22T00:46:36;39.63;36.89;42.77;;
69610;Laerm;56816;52.192;4.474;2022-10-22T00:46:47;39.62;37.72;41.39;;
69610;Laerm;56816;52.192;4.474;2022-10-22T00:46:57;39.57;36.81;42.00;;
69610;Laerm;56816;52.192;4.474;2022-10-22T00:47:07;38.71;36.66;40.52;;
69610;Laerm;56816;52.192;4.474;2022-10-22T00:47:18;39.81;37.28;44.84;;
69610;Laerm;56816;52.192;4.474;2022-10-22T00:47:50;40.69;37.32;45.01;;
69610;Laerm;56816;52.192;4.474;2022-10-22T00:48:06;41.12;38.40;45.92;;
69610;Laerm;56816;52.192;4.474;2022-10-22T00:48:30;41.51;38.25;47.85;;
69610;Laerm;56816;52.192;4.474;2022-10-22T00:48:42;42.95;38.73;48.91;;
69610;Laerm;56816;52.192;4.474;2022-10-22T00:48:53;41.10;37.99;47.00;;
69610;Laerm;56816;52.192;4.474;2022-10-22T00:49:03;45.32;39.20;50.69;;
69610;Laerm;56816;52.192;4.474;2022-10-22T00:49:14;45.66;42.18;50.87;;
69610;Laerm;56816;52.192;4.474;2022-10-22T00:49:24;44.71;41.01;48.20;;
69610;Laerm;56816;52.192;4.474;2022-10-22T00:49:34;42.98;39.47;48.84;;
69610;Laerm;56816;52.192;4.474;2022-10-22T00:49:45;40.57;37.63;44.72;;
69610;Laerm;56816;52.192;4.474;2022-10-22T00:49:55;38.58;35.77;42.43;;
69610;Laerm;56816;52.192;4.474;2022-10-22T00:50:12;41.41;38.05;49.77;;
69610;Laerm;56816;52.192;4.474;2022-10-22T00:50:25;40.65;38.05;45.26;;
69610;Laerm;56816;52.192;4.474;2022-10-22T00:50:42;44.55;40.75;47.79;;
69610;Laerm;56816;52.192;4.474;2022-10-22T00:51:05;44.03;37.80;52.24;;
69610;Laerm;56816;52.192;4.474;2022-10-22T00:51:17;39.91;36.96;42.74;;
69610;Laerm;56816;52.192;4.474;2022-10-22T00:51:29;39.78;37.85;43.70;;
69610;Laerm;56816;52.192;4.474;2022-10-22T00:51:40;40.87;37.67;44.74;;
69610;Laerm;56816;52.192;4.474;2022-10-22T00:51:50;37.94;35.62;40.65;;
69610;Laerm;56816;52.192;4.474;2022-10-22T00:52:01;37.85;35.42;43.37;;
69610;Laerm;56816;52.192;4.474;2022-10-22T00:52:11;37.94;35.64;43.92;;
69610;Laerm;56816;52.192;4.474;2022-10-22T00:52:22;37.70;35.49;40.04;;
69610;Laerm;56816;52.192;4.474;2022-10-22T00:52:32;39.00;35.89;42.63;;
69610;Laerm;56816;52.192;4.474;2022-10-22T00:52:42;41.62;37.37;45.98;;
69610;Laerm;56816;52.192;4.474;2022-10-22T00:52:53;44.83;40.90;53.51;;
69610;Laerm;56816;52.192;4.474;2022-10-22T00:53:05;46.12;41.66;50.27;;
69610;Laerm;56816;52.192;4.474;2022-10-22T00:53:21;46.99;39.31;51.34;;
69610;Laerm;56816;52.192;4.474;2022-10-22T00:53:34;49.30;39.49;56.86;;
69610;Laerm;56816;52.192;4.474;2022-10-22T00:53:49;50.87;43.90;57.75;;
69610;Laerm;56816;52.192;4.474;2022-10-22T00:54:02;44.83;41.30;48.17;;
69610;Laerm;56816;52.192;4.474;2022-10-22T00:54:13;43.49;39.21;47.06;;
69610;Laerm;56816;52.192;4.474;2022-10-22T00:54:23;45.49;41.88;49.32;;
69610;Laerm;56816;52.192;4.474;2022-10-22T00:54:34;46.29;41.33;58.38;;
69610;Laerm;56816;52.192;4.474;2022-10-22T00:54:44;48.07;41.75;53.53;;
69610;Laerm;56816;52.192;4.474;2022-10-22T00:54:55;46.76;42.11;51.29;;
69610;Laerm;56816;52.192;4.474;2022-10-22T00:55:06;51.03;42.01;56.99;;
69610;Laerm;56816;52.192;4.474;2022-10-22T00:55:17;42.88;38.38;51.18;;
69610;Laerm;56816;52.192;4.474;2022-10-22T00:55:28;41.27;38.15;44.74;;
69610;Laerm;56816;52.192;4.474;2022-10-22T00:55:39;43.39;39.86;48.63;;
69610;Laerm;56816;52.192;4.474;2022-10-22T00:55:50;39.53;37.73;42.37;;
69610;Laerm;56816;52.192;4.474;2022-10-22T00:56:01;45.24;39.32;52.58;;
69610;Laerm;56816;52.192;4.474;2022-10-22T00:56:11;44.72;40.96;52.92;;
69610;Laerm;56816;52.192;4.474;2022-10-22T00:56:22;43.15;40.18;52.08;;
69610;Laerm;56816;52.192;4.474;2022-10-22T00:56:33;42.62;40.73;47.83;;
69610;Laerm;56816;52.192;4.474;2022-10-22T00:56:43;43.11;39.71;46.99;;
69610;Laerm;56816;52.192;4.474;2022-10-22T00:56:54;40.62;38.14;43.33;;
69610;Laerm;56816;52.192;4.474;2022-10-22T00:57:04;39.11;36.82;41.68;;
69610;Laerm;56816;52.192;4.474;2022-10-22T00:57:15;38.12;36.03;39.86;;
69610;Laerm;56816;52.192;4.474;2022-10-22T00:57:25;37.76;35.70;39.56;;
69610;Laerm;56816;52.192;4.474;2022-10-22T00:57:36;37.23;35.43;40.17;;
69610;Laerm;56816;52.192;4.474;2022-10-22T00:57:46;39.58;35.78;49.93;;
69610;Laerm;56816;52.192;4.474;2022-10-22T00:57:57;46.66;36.47;54.71;;
69610;Laerm;56816;52.192;4.474;2022-10-22T00:58:09;48.95;39.08;57.72;;
69610;Laerm;56816;52.192;4.474;2022-10-22T00:58:19;41.41;38.16;45.52;;
69610;Laerm;56816;52.192;4.474;2022-10-22T00:58:32;43.06;38.28;53.21;;
69610;Laerm;56816;52.192;4.474;2022-10-22T00:58:45;39.65;37.36;42.45;;
69610;Laerm;56816;52.192;4.474;2022-10-22T00:58:57;47.46;39.40;54.50;;
69610;Laerm;56816;52.192;4.474;2022-10-22T00:59:08;44.27;35.92;55.67;;
69610;Laerm;56816;52.192;4.474;2022-10-22T00:59:20;36.65;34.63;39.01;;
69610;Laerm;56816;52.192;4.474;2022-10-22T00:59:31;38.64;35.15;44.59;;
69610;Laerm;56816;52.192;4.474;2022-10-22T00:59:41;38.22;36.20;41.85;;
69610;Laerm;56816;52.192;4.474;2022-10-22T00:59:52;40.66;35.77;45.25;;
69610;Laerm;56816;52.192;4.474;2022-10-22T01:00:04;43.99;39.20;52.15;;
69610;Laerm;56816;52.192;4.474;2022-10-22T01:00:14;45.36;39.86;50.53;;
69610;Laerm;56816;52.192;4.474;2022-10-22T01:00:25;39.65;36.52;46.41;;
69610;Laerm;56816;52.192;4.474;2022-10-22T01:00:35;39.06;36.85;42.76;;
69610;Laerm;56816;52.192;4.474;2022-10-22T01:00:46;40.13;37.55;44.85;;
69610;Laerm;56816;52.192;4.474;2022-10-22T01:00:56;40.23;37.06;47.66;;
69610;Laerm;56816;52.192;4.474;2022-10-22T01:01:08;39.78;36.09;47.65;;
69610;Laerm;56816;52.192;4.474;2022-10-22T01:01:22;39.38;36.69;43.56;;
69610;Laerm;56816;52.192;4.474;2022-10-22T01:01:32;39.10;37.30;42.85;;
69610;Laerm;56816;52.192;4.474;2022-10-22T01:01:43;48.91;39.36;58.96;;
69610;Laerm;56816;52.192;4.474;2022-10-22T01:01:54;38.86;36.52;45.12;;
69610;Laerm;56816;52.192;4.474;2022-10-22T01:02:04;38.72;36.09;43.02;;
69610;Laerm;56816;52.192;4.474;2022-10-22T01:02:15;40.58;35.92;53.51;;
69610;Laerm;56816;52.192;4.474;2022-10-22T01:02:25;43.68;35.15;55.98;;